UKB weather

Kobe Airport
Kobe, Hyōgo Prefecture, Japan

Public forecast

Using degrees Celsius for public forecast. Weather courtesy of forecast.io.

METAR (pilot weather report)

Report is more than 6 hours old.

Retrieved 2019/03/19 12:00 UTC (9 hours ago):

RJBE 191200Z 32004KT 9999 FEW025 09/07 Q1015

TAF (pilot weather forecast)

Closest forecast is Kansai International Airport, 12.4 nm (22.9 km) S. Retrieved 2019/03/19 18:00 UTC (3 hours ago):

TAF RJBB 191706Z 1918/2100 06005KT 9999 FEW010 BECMG 2002/2004 26006KT BECMG 2012/2015 13008KT BECMG 2018/2021 19018KT TEMPO 2021/2100 19020G32KT 4000 SHRA BR